aviador You're here:

YPAD Decoded Metar

ADELAIDE in AUSTRALIA
Report Time2017-07-21 08:00:00
UTC Time2017-07-21 08:35:22
Flight Rules vfr VFR
Wind010° at 09 kt
W.Decomp.*RWY 05: 6.0 kt HW 6.7 kt LCW
RWY 30: 4.2 kt HW 7.9 kt RCW
W.Rank010° ranks 10
Current wind is below 010° avg. (9.9)
Visibility9999 m
Phenomena:N/A
Clouds:N/A
Expected CloudBase > 4,800 ft AGL from Temp-Dew spread
CeilingNone
Temp16°C (ISA +1)
Dew Point04°C (45% RH)
AAT11.5°C
QNH1018 hPa
Density Alt79 ft
Elevation13 ft
Report Wrong Elevation
Raw Report
METAR YPAD 210800Z 01009KT CAVOK 16/04 Q1018
NOSIG=

Extra information for YPAD:More info

Metar Taf Metar & Taf Last 4 Metars F.Rules Stats Wind Profile Meteogram Temp Stats Airport Information Weather charts Add Link Nearby VenuesMetar ALERT Operation Metar Decoded Social comments

Adelaide Airport Webcam